createdAt,value
2022-08-05T00:00:17.100Z,99.90
2022-08-05T00:02:51.778Z,99.90
2022-08-05T00:06:02.475Z,99.90
2022-08-05T00:08:34.094Z,99.90
2022-08-05T00:11:00.421Z,99.90
2022-08-05T00:13:38.503Z,99.90
2022-08-05T00:16:08.924Z,99.90
2022-08-05T00:18:38.411Z,99.90
2022-08-05T00:21:08.473Z,99.90
2022-08-05T00:23:46.102Z,99.90
2022-08-05T00:26:16.466Z,99.90
2022-08-05T00:28:45.799Z,99.90
2022-08-05T00:31:14.613Z,99.90
2022-08-05T00:34:54.217Z,99.90
2022-08-05T00:37:10.923Z,99.90
2022-08-05T00:39:20.365Z,99.90
2022-08-05T00:41:55.587Z,99.90
2022-08-05T00:44:30.962Z,99.90
2022-08-05T00:47:02.096Z,99.90
2022-08-05T00:49:51.280Z,99.90
2022-08-05T00:52:28.122Z,99.90
2022-08-05T00:54:57.110Z,99.90
2022-08-05T00:57:31.762Z,99.90
2022-08-05T01:00:15.115Z,99.90
2022-08-05T01:02:45.177Z,99.90
2022-08-05T01:05:14.599Z,99.90
2022-08-05T01:08:30.729Z,99.90
2022-08-05T01:10:37.018Z,99.90
2022-08-05T01:13:13.324Z,99.90
2022-08-05T01:15:52.901Z,99.90
2022-08-05T01:18:27.500Z,99.90
2022-08-05T01:21:06.687Z,99.90
2022-08-05T01:23:45.145Z,99.90
2022-08-05T01:26:35.533Z,99.90
2022-08-05T01:29:07.029Z,99.90
2022-08-05T01:31:42.776Z,99.90
2022-08-05T01:34:17.866Z,99.90
2022-08-05T01:36:50.687Z,99.90
2022-08-05T01:39:46.017Z,99.90
2022-08-05T01:42:12.413Z,99.90
2022-08-05T01:44:45.658Z,99.90
2022-08-05T01:47:23.504Z,99.90
2022-08-05T01:50:02.007Z,99.90
2022-08-05T01:52:34.629Z,99.90
2022-08-05T01:55:06.734Z,99.90
2022-08-05T01:58:09.432Z,99.90
2022-08-05T02:00:31.756Z,99.90
2022-08-05T02:03:05.068Z,99.90
2022-08-05T02:05:36.025Z,99.90
2022-08-05T02:08:05.926Z,99.90
2022-08-05T02:10:46.656Z,99.90
2022-08-05T02:13:18.179Z,99.90
2022-08-05T02:15:55.057Z,99.90
2022-08-05T02:18:32.359Z,99.90
2022-08-05T02:21:13.236Z,99.90
2022-08-05T02:23:46.002Z,99.90
2022-08-05T02:26:19.770Z,99.90
2022-08-05T02:28:51.143Z,99.90
2022-08-05T02:31:24.561Z,99.90
2022-08-05T02:34:06.392Z,99.90
2022-08-05T02:36:42.373Z,99.90
2022-08-05T02:39:10.978Z,99.90
2022-08-05T02:41:57.810Z,99.90
2022-08-05T02:44:31.347Z,99.90
2022-08-05T02:47:01.372Z,99.90
2022-08-05T02:49:36.169Z,99.90
2022-08-05T02:52:10.066Z,99.90
2022-08-05T02:54:42.308Z,99.90
2022-08-05T02:58:09.653Z,99.90
2022-08-05T03:00:12.670Z,99.90
2022-08-05T03:02:44.915Z,99.90
2022-08-05T03:05:14.881Z,99.90
2022-08-05T03:08:07.045Z,99.90
2022-08-05T03:10:32.029Z,99.90
2022-08-05T03:15:28.422Z,99.90
2022-08-05T03:17:59.402Z,99.90
2022-08-05T03:20:27.837Z,99.90
2022-08-05T03:22:57.263Z,99.90
2022-08-05T03:25:32.809Z,99.90
2022-08-05T03:28:18.708Z,99.90
2022-08-05T03:30:48.791Z,99.90
2022-08-05T03:33:19.423Z,99.90
2022-08-05T03:35:48.231Z,99.90
2022-08-05T03:38:32.590Z,99.90
2022-08-05T03:41:08.482Z,99.90
2022-08-05T03:44:08.730Z,99.90
2022-08-05T03:46:30.034Z,99.90
2022-08-05T03:49:02.253Z,99.90
2022-08-05T03:52:50.418Z,99.90
2022-08-05T03:55:51.937Z,99.90
2022-08-05T03:57:28.929Z,99.90
2022-08-05T04:00:01.755Z,99.90
2022-08-05T04:02:33.473Z,99.90
2022-08-05T04:05:11.255Z,99.90
2022-08-05T04:07:58.177Z,99.90
2022-08-05T04:10:32.148Z,99.90
2022-08-05T04:13:05.589Z,99.90
2022-08-05T04:15:36.116Z,99.90
2022-08-05T04:18:07.334Z,99.90
2022-08-05T04:20:41.399Z,99.90
2022-08-05T04:23:12.257Z,99.90
2022-08-05T04:26:00.354Z,99.90
2022-08-05T04:28:31.762Z,99.90
2022-08-05T04:31:00.790Z,99.90
2022-08-05T04:33:54.952Z,99.90
2022-08-05T04:36:44.731Z,99.90
2022-08-05T04:39:07.466Z,99.90
2022-08-05T04:41:37.309Z,99.90
2022-08-05T04:44:09.274Z,99.90
2022-08-05T04:46:38.743Z,99.90
2022-08-05T04:49:12.124Z,99.90
2022-08-05T04:51:44.552Z,99.90
2022-08-05T04:54:14.712Z,99.90
2022-08-05T04:56:43.630Z,99.90
2022-08-05T04:59:24.115Z,99.90
2022-08-05T05:02:35.240Z,99.90
2022-08-05T05:04:49.874Z,99.90
2022-08-05T05:07:29.515Z,99.90
2022-08-05T05:10:04.339Z,99.90
2022-08-05T05:12:32.517Z,99.90
2022-08-05T05:15:03.656Z,99.90
2022-08-05T05:17:57.008Z,99.90
2022-08-05T05:20:28.722Z,99.90
2022-08-05T05:22:58.597Z,99.90
2022-08-05T05:25:37.233Z,99.90
2022-08-05T05:28:09.380Z,99.90
2022-08-05T05:30:37.755Z,99.90
2022-08-05T05:33:16.010Z,99.90
2022-08-05T05:35:47.373Z,99.90
2022-08-05T05:38:22.679Z,99.90
2022-08-05T05:40:56.022Z,99.90
2022-08-05T05:43:57.192Z,99.90
2022-08-05T05:46:17.744Z,99.90
2022-08-05T05:48:48.868Z,99.90
2022-08-05T05:51:23.713Z,99.90
2022-08-05T05:53:58.665Z,99.90
2022-08-05T05:56:32.984Z,99.90
2022-08-05T05:59:05.434Z,99.90
2022-08-05T06:01:37.742Z,99.90
2022-08-05T06:04:08.275Z,99.90
2022-08-05T06:06:42.639Z,99.90
2022-08-05T06:09:17.011Z,99.90
2022-08-05T06:11:59.101Z,99.90
2022-08-05T06:14:29.778Z,99.90
2022-08-05T06:16:58.343Z,99.90
2022-08-05T06:19:34.509Z,99.90
2022-08-05T06:22:04.547Z,99.90
2022-08-05T06:24:36.972Z,99.90
2022-08-05T06:27:05.988Z,99.90
2022-08-05T06:29:53.337Z,99.90
2022-08-05T06:32:32.321Z,99.90
2022-08-05T06:35:06.069Z,99.90
2022-08-05T06:37:57.286Z,99.90
2022-08-05T06:40:32.329Z,99.90
2022-08-05T06:43:00.761Z,99.90
2022-08-05T06:45:45.070Z,99.90
2022-08-05T06:48:53.075Z,99.90
2022-08-05T06:51:09.407Z,99.90
2022-08-05T06:53:39.307Z,99.90
2022-08-05T06:56:26.103Z,99.90
2022-08-05T06:58:55.109Z,99.90
2022-08-05T07:01:23.579Z,99.90
2022-08-05T07:03:55.922Z,99.90
2022-08-05T07:06:24.109Z,99.90
2022-08-05T07:08:55.807Z,99.90
2022-08-05T07:11:25.688Z,99.90
2022-08-05T07:14:20.434Z,99.90
2022-08-05T07:17:58.903Z,99.90
2022-08-05T07:20:31.435Z,99.90
2022-08-05T07:22:35.962Z,99.90
2022-08-05T07:25:09.490Z,99.90
2022-08-05T07:27:58.047Z,99.90
2022-08-05T07:30:31.836Z,99.90
2022-08-05T07:33:01.657Z,99.90
2022-08-05T07:36:02.310Z,99.90
2022-08-05T07:38:32.896Z,99.90
2022-08-05T07:42:09.547Z,99.90
2022-08-05T07:43:53.270Z,99.90
2022-08-05T07:46:26.273Z,99.90
2022-08-05T07:49:04.225Z,99.90
2022-08-05T07:51:36.724Z,99.90
2022-08-05T07:54:06.229Z,99.90
2022-08-05T07:56:39.061Z,99.90
2022-08-05T07:59:38.625Z,99.90
2022-08-05T08:02:15.517Z,99.90
2022-08-05T08:04:46.578Z,99.90
2022-08-05T08:07:15.390Z,99.90
2022-08-05T08:09:44.182Z,99.90
2022-08-05T08:12:36.872Z,99.90
2022-08-05T08:15:04.854Z,99.90
2022-08-05T08:17:37.904Z,99.90
2022-08-05T08:20:42.950Z,99.90
2022-08-05T08:22:55.730Z,99.90
2022-08-05T08:25:26.784Z,99.90
2022-08-05T08:28:18.467Z,99.90
2022-08-05T08:31:02.144Z,99.90
2022-08-05T08:33:37.654Z,99.90
2022-08-05T08:36:38.144Z,99.90
2022-08-05T08:38:56.936Z,99.90
2022-08-05T08:41:50.425Z,99.90
2022-08-05T08:45:20.487Z,99.90
2022-08-05T08:47:46.879Z,99.90
2022-08-05T08:50:07.583Z,99.90
2022-08-05T08:52:51.726Z,99.90
2022-08-05T08:56:02.103Z,99.90
2022-08-05T08:58:10.766Z,99.90
2022-08-05T09:00:43.439Z,99.90
2022-08-05T09:03:16.301Z,99.90
2022-08-05T09:06:07.598Z,99.90
2022-08-05T09:08:40.313Z,99.90
2022-08-05T09:11:08.965Z,99.90
2022-08-05T09:14:00.784Z,99.90
2022-08-05T09:16:31.013Z,99.90
2022-08-05T09:19:00.549Z,99.90
2022-08-05T09:22:17.976Z,99.90
2022-08-05T09:24:17.704Z,99.90
2022-08-05T09:26:51.730Z,99.90
2022-08-05T09:29:20.483Z,99.90
2022-08-05T09:32:46.333Z,99.90
2022-08-05T09:34:59.021Z,99.90
2022-08-05T09:38:16.670Z,99.90
2022-08-05T09:40:32.286Z,99.90
2022-08-05T09:43:01.668Z,99.90
2022-08-05T09:46:07.339Z,99.90
2022-08-05T09:48:28.374Z,99.90
2022-08-05T09:51:00.091Z,99.90
2022-08-05T09:53:54.972Z,99.90
2022-08-05T09:56:25.703Z,99.90
2022-08-05T09:59:01.206Z,99.90
2022-08-05T10:01:33.664Z,99.90
2022-08-05T10:04:04.580Z,99.90
2022-08-05T10:06:49.815Z,99.90
2022-08-05T10:09:28.090Z,99.90
2022-08-05T10:12:30.413Z,99.90
2022-08-05T10:15:17.051Z,99.90
2022-08-05T10:18:08.087Z,99.90
2022-08-05T10:20:37.996Z,99.90
2022-08-05T10:23:21.740Z,99.90
2022-08-05T10:25:56.414Z,99.90
2022-08-05T10:28:29.380Z,99.90
2022-08-05T10:32:47.786Z,99.90
2022-08-05T10:33:54.201Z,99.90
2022-08-05T10:36:23.747Z,99.90
2022-08-05T10:39:05.009Z,99.90
2022-08-05T10:41:46.573Z,99.90
2022-08-05T10:44:19.524Z,99.90
2022-08-05T10:46:50.972Z,99.90
2022-08-05T10:49:27.080Z,99.90
2022-08-05T10:52:03.282Z,99.90
2022-08-05T10:54:56.987Z,99.90
2022-08-05T10:57:32.348Z,99.90
2022-08-05T11:00:18.535Z,99.90
2022-08-05T11:03:25.434Z,99.90
2022-08-05T11:06:16.276Z,99.90
2022-08-05T11:09:16.867Z,99.90
2022-08-05T11:11:53.220Z,99.90
2022-08-05T11:14:56.326Z,99.90
2022-08-05T11:17:57.778Z,99.90
2022-08-05T11:20:43.710Z,99.90
2022-08-05T11:23:33.358Z,99.90
2022-08-05T11:26:28.299Z,99.90
2022-08-05T11:29:12.605Z,99.90
2022-08-05T11:31:53.895Z,99.90
2022-08-05T11:34:37.892Z,99.90
2022-08-05T11:38:28.065Z,99.90
2022-08-05T11:40:00.296Z,99.90
2022-08-05T11:42:37.920Z,99.90
2022-08-05T11:45:23.404Z,99.90
2022-08-05T11:47:58.979Z,99.90
2022-08-05T11:50:27.380Z,99.90
2022-08-05T11:52:58.138Z,99.90
2022-08-05T11:55:32.194Z,99.90
2022-08-05T11:58:10.567Z,99.90
2022-08-05T12:00:44.341Z,99.90
2022-08-05T12:03:28.586Z,99.90
2022-08-05T12:06:01.028Z,99.90
2022-08-05T12:08:31.529Z,99.90
2022-08-05T12:11:05.995Z,99.90
2022-08-05T12:13:49.557Z,99.90
2022-08-05T12:16:25.503Z,99.90
2022-08-05T12:18:55.580Z,99.90
2022-08-05T12:21:26.760Z,99.90
2022-08-05T12:24:04.597Z,99.90
2022-08-05T12:26:33.992Z,99.90
2022-08-05T12:29:03.413Z,99.90
2022-08-05T12:31:46.135Z,99.90
2022-08-05T12:34:21.274Z,99.90
2022-08-05T12:36:50.892Z,99.90
2022-08-05T12:39:20.273Z,99.90
2022-08-05T12:41:48.763Z,99.90
2022-08-05T12:44:21.872Z,99.90
2022-08-05T12:47:03.891Z,99.90
2022-08-05T12:50:03.089Z,99.90
2022-08-05T12:52:37.736Z,99.90
2022-08-05T12:55:22.541Z,99.90
2022-08-05T12:58:48.440Z,99.90
2022-08-05T13:02:02.520Z,99.90
2022-08-05T13:03:42.431Z,99.90
2022-08-05T13:06:17.832Z,99.90
2022-08-05T13:08:51.791Z,99.90
2022-08-05T13:11:59.655Z,99.90
2022-08-05T13:14:24.738Z,99.90
2022-08-05T13:17:04.542Z,99.90
2022-08-05T13:19:51.710Z,99.90
2022-08-05T13:22:29.230Z,99.90
2022-08-05T13:25:00.858Z,99.90
2022-08-05T13:27:37.685Z,99.10
2022-08-05T13:30:36.082Z,99.90
2022-08-05T13:32:56.932Z,98.40
2022-08-05T13:35:42.676Z,99.00
2022-08-05T13:38:28.403Z,99.70
2022-08-05T13:40:59.777Z,97.00
2022-08-05T13:43:44.737Z,96.60
2022-08-05T13:46:35.824Z,94.90
2022-08-05T13:49:10.351Z,94.90
2022-08-05T13:51:46.614Z,94.10
2022-08-05T13:54:16.290Z,93.10
2022-08-05T13:56:51.636Z,92.50
2022-08-05T13:59:25.110Z,91.80
2022-08-05T14:01:58.978Z,92.40
2022-08-05T14:04:51.397Z,93.30
2022-08-05T14:08:01.175Z,91.60
2022-08-05T14:10:19.013Z,94.00
2022-08-05T14:12:57.150Z,94.00
2022-08-05T14:16:05.185Z,91.20
2022-08-05T14:18:17.894Z,91.60
2022-08-05T14:20:48.255Z,88.30
2022-08-05T14:23:24.883Z,90.00
2022-08-05T14:25:58.157Z,90.60
2022-08-05T14:28:28.083Z,91.50
2022-08-05T14:30:56.513Z,91.20
2022-08-05T14:33:24.634Z,90.10
2022-08-05T14:35:54.530Z,84.00
2022-08-05T14:38:32.192Z,87.30
2022-08-05T14:41:04.471Z,88.10
2022-08-05T14:43:58.883Z,99.90
2022-08-05T14:46:28.769Z,80.10
2022-08-05T14:49:03.408Z,78.00
2022-08-05T14:51:35.384Z,77.00
2022-08-05T14:54:28.681Z,80.00
2022-08-05T14:56:54.743Z,78.80
2022-08-05T14:59:23.005Z,74.70
2022-08-05T15:01:51.219Z,70.80
2022-08-05T15:04:22.586Z,68.40
2022-08-05T15:06:51.369Z,67.80
2022-08-05T15:09:51.465Z,71.80
2022-08-05T15:12:16.874Z,77.30
2022-08-05T15:14:50.550Z,99.90
2022-08-05T15:17:46.436Z,83.40
2022-08-05T15:20:18.944Z,83.50
2022-08-05T15:22:54.237Z,76.00
2022-08-05T15:25:41.023Z,68.10
2022-08-05T15:28:16.382Z,65.50
2022-08-05T15:30:46.787Z,66.10
2022-08-05T15:34:19.045Z,65.10
2022-08-05T15:36:17.566Z,67.80
2022-08-05T15:40:41.616Z,64.90
2022-08-05T15:41:55.484Z,64.70
2022-08-05T15:44:27.754Z,65.90
2022-08-05T15:46:56.052Z,64.20
2022-08-05T15:49:55.097Z,64.00
2022-08-05T15:52:29.007Z,62.50
2022-08-05T15:55:02.126Z,63.30
2022-08-05T15:57:33.147Z,59.40
2022-08-05T16:00:03.521Z,54.90
2022-08-05T16:02:31.873Z,62.80
2022-08-05T16:05:00.675Z,63.80
2022-08-05T16:07:29.368Z,64.10
2022-08-05T16:09:58.209Z,63.70
2022-08-05T16:12:26.565Z,92.60
2022-08-05T16:14:56.477Z,58.60
2022-08-05T16:17:24.567Z,59.40
2022-08-05T16:20:04.716Z,61.20
2022-08-05T16:22:39.912Z,63.40
2022-08-05T16:25:10.503Z,61.40
2022-08-05T16:28:00.942Z,58.70
2022-08-05T16:30:30.710Z,55.00
2022-08-05T16:33:00.309Z,53.80
2022-08-05T16:35:32.598Z,50.60
2022-08-05T16:38:15.746Z,55.30
2022-08-05T16:40:51.789Z,57.90
2022-08-05T16:43:30.310Z,57.20
2022-08-05T16:46:05.192Z,54.60
2022-08-05T16:48:36.760Z,52.00
2022-08-05T16:51:09.469Z,52.00
2022-08-05T16:54:02.754Z,52.90
2022-08-05T16:56:27.685Z,55.60
2022-08-05T16:58:56.091Z,60.40
2022-08-05T17:01:26.592Z,61.90
2022-08-05T17:03:54.711Z,92.70
2022-08-05T17:06:24.749Z,61.70
2022-08-05T17:08:54.302Z,62.40
2022-08-05T17:11:23.809Z,61.80
2022-08-05T17:14:00.230Z,62.40
2022-08-05T17:16:37.263Z,63.30
2022-08-05T17:19:07.051Z,62.20
2022-08-05T17:21:36.733Z,63.00
2022-08-05T17:24:14.360Z,63.40
2022-08-05T17:26:55.551Z,63.60
2022-08-05T17:29:33.163Z,62.90
2022-08-05T17:32:11.618Z,63.10
2022-08-05T17:34:45.080Z,63.20
2022-08-05T17:37:39.304Z,63.40
2022-08-05T17:40:05.891Z,64.10
2022-08-05T17:42:39.511Z,62.50
2022-08-05T17:45:20.270Z,63.90
2022-08-05T17:47:54.429Z,63.50
2022-08-05T17:50:28.621Z,65.60
2022-08-05T17:53:00.029Z,66.90
2022-08-05T17:55:37.498Z,69.20
2022-08-05T17:58:11.181Z,72.00
2022-08-05T18:00:45.331Z,76.00
2022-08-05T18:03:59.112Z,79.20
2022-08-05T18:06:11.005Z,81.50
2022-08-05T18:08:44.845Z,84.30
2022-08-05T18:11:23.934Z,86.50
2022-08-05T18:14:01.067Z,91.70
2022-08-05T18:16:32.058Z,91.60
2022-08-05T18:19:01.652Z,93.80
2022-08-05T18:22:09.645Z,95.20
2022-08-05T18:24:17.929Z,96.30
2022-08-05T18:26:46.003Z,98.30
2022-08-05T18:29:16.768Z,99.40
2022-08-05T18:31:45.314Z,99.90
2022-08-05T18:34:14.904Z,99.90
2022-08-05T18:36:43.647Z,99.90
2022-08-05T18:39:42.477Z,99.90
2022-08-05T18:42:06.310Z,99.90
2022-08-05T18:44:51.668Z,99.90
2022-08-05T18:47:26.646Z,99.90
2022-08-05T18:50:15.471Z,99.90
2022-08-05T18:52:50.913Z,99.90
2022-08-05T18:55:21.497Z,99.90
2022-08-05T18:57:53.518Z,99.90
2022-08-05T19:00:29.058Z,99.90
2022-08-05T19:03:04.006Z,99.90
2022-08-05T19:06:13.219Z,99.90
2022-08-05T19:08:30.570Z,99.90
2022-08-05T19:11:04.487Z,99.90
2022-08-05T19:13:36.138Z,99.90
2022-08-05T19:16:28.491Z,99.90
2022-08-05T19:18:56.674Z,99.90
2022-08-05T19:21:29.523Z,99.90
2022-08-05T19:24:06.958Z,99.90
2022-08-05T19:26:45.495Z,99.90
2022-08-05T19:29:35.610Z,99.90
2022-08-05T19:32:08.596Z,99.90
2022-08-05T19:34:39.861Z,99.90
2022-08-05T19:37:10.551Z,99.90
2022-08-05T19:39:45.897Z,99.90
2022-08-05T19:42:34.875Z,99.90
2022-08-05T19:45:05.608Z,99.90
2022-08-05T19:47:34.440Z,99.90
2022-08-05T19:50:07.872Z,99.90
2022-08-05T19:52:42.600Z,99.90
2022-08-05T19:56:14.154Z,99.90
2022-08-05T19:58:14.376Z,99.90
2022-08-05T20:00:52.597Z,99.90
2022-08-05T20:03:20.783Z,99.90
2022-08-05T20:05:51.235Z,99.90
2022-08-05T20:08:24.504Z,99.90
2022-08-05T20:10:53.185Z,99.90
2022-08-05T20:13:54.797Z,99.90
2022-08-05T20:16:10.304Z,99.90
2022-08-05T20:18:38.735Z,99.90
2022-08-05T20:21:07.927Z,99.90
2022-08-05T20:23:51.275Z,99.90
2022-08-05T20:26:23.345Z,99.90
2022-08-05T20:28:55.749Z,99.90
2022-08-05T20:31:37.611Z,99.90
2022-08-05T20:34:14.848Z,99.90
2022-08-05T20:36:43.834Z,99.90
2022-08-05T20:39:16.594Z,99.90
2022-08-05T20:41:47.967Z,99.90
2022-08-05T20:44:30.591Z,99.90
2022-08-05T20:46:59.915Z,99.90
2022-08-05T20:49:27.971Z,99.90
2022-08-05T20:51:57.496Z,99.90
2022-08-05T20:54:42.706Z,99.90
2022-08-05T20:57:42.019Z,99.90
2022-08-05T21:00:19.729Z,99.90
2022-08-05T21:03:01.186Z,99.90
2022-08-05T21:05:47.653Z,99.90
2022-08-05T21:08:17.754Z,99.90
2022-08-05T21:10:48.817Z,99.90
2022-08-05T21:13:26.169Z,99.90
2022-08-05T21:16:08.945Z,99.90
2022-08-05T21:18:37.060Z,99.90
2022-08-05T21:21:05.318Z,99.90
2022-08-05T21:23:37.414Z,99.90
2022-08-05T21:26:14.413Z,99.90
2022-08-05T21:28:47.631Z,99.90
2022-08-05T21:31:19.118Z,99.90
2022-08-05T21:33:49.385Z,99.90
2022-08-05T21:36:19.205Z,99.90
2022-08-05T21:38:58.535Z,99.90
2022-08-05T21:41:34.087Z,99.90
2022-08-05T21:44:04.945Z,99.90
2022-08-05T21:46:34.612Z,99.90
2022-08-05T21:49:04.768Z,99.90
2022-08-05T21:52:21.359Z,99.90
2022-08-05T21:54:27.848Z,99.90
2022-08-05T21:57:29.202Z,99.90
2022-08-05T22:00:03.188Z,99.90
2022-08-05T22:02:33.723Z,99.90
2022-08-05T22:05:01.932Z,99.90
2022-08-05T22:07:40.362Z,99.90
2022-08-05T22:10:26.781Z,99.90
2022-08-05T22:12:58.870Z,99.90
2022-08-05T22:16:01.660Z,99.90
2022-08-05T22:18:15.979Z,99.90
2022-08-05T22:20:47.742Z,99.90
2022-08-05T22:24:00.983Z,99.90
2022-08-05T22:26:42.992Z,99.90
2022-08-05T22:29:26.347Z,99.90
2022-08-05T22:31:59.306Z,99.90
2022-08-05T22:34:28.681Z,99.90
2022-08-05T22:36:58.249Z,99.90
2022-08-05T22:39:32.972Z,99.90
2022-08-05T22:42:10.932Z,99.90
2022-08-05T22:44:53.575Z,99.90
2022-08-05T22:47:30.368Z,99.90
2022-08-05T22:50:20.886Z,99.90
2022-08-05T22:52:48.116Z,99.90
2022-08-05T22:55:18.385Z,99.90
2022-08-05T22:57:49.041Z,99.90
2022-08-05T23:00:21.200Z,99.90
2022-08-05T23:02:50.509Z,99.90
2022-08-05T23:05:19.051Z,99.90
2022-08-05T23:07:50.629Z,99.90
2022-08-05T23:10:19.987Z,99.90
2022-08-05T23:12:51.459Z,99.90
2022-08-05T23:15:28.932Z,99.90
2022-08-05T23:18:00.784Z,99.90
2022-08-05T23:20:31.336Z,99.90
2022-08-05T23:23:00.411Z,99.90
2022-08-05T23:25:52.395Z,99.90
2022-08-05T23:28:20.042Z,99.90
2022-08-05T23:30:53.134Z,99.90
2022-08-05T23:34:03.289Z,99.90
2022-08-05T23:36:10.754Z,99.90
2022-08-05T23:38:42.023Z,99.90
2022-08-05T23:41:11.101Z,99.90
2022-08-05T23:44:06.458Z,99.90
2022-08-05T23:46:29.681Z,99.90
2022-08-05T23:49:00.058Z,99.90
2022-08-05T23:51:53.444Z,99.90
2022-08-05T23:54:26.075Z,99.90
2022-08-05T23:56:55.616Z,99.90
